createdAt,value
2023-09-22T00:01:25.457Z,100.00
2023-09-22T00:03:57.576Z,100.00
2023-09-22T00:06:27.565Z,100.00
2023-09-22T00:08:57.633Z,100.00
2023-09-22T00:11:28.881Z,100.00
2023-09-22T00:14:00.517Z,100.00
2023-09-22T00:16:30.458Z,100.00
2023-09-22T00:19:02.708Z,100.00
2023-09-22T00:21:32.584Z,100.00
2023-09-22T00:24:02.611Z,100.00
2023-09-22T00:26:33.995Z,100.00
2023-09-22T00:29:05.027Z,100.00
2023-09-22T00:31:34.955Z,100.00
2023-09-22T00:34:06.368Z,100.00
2023-09-22T00:36:36.506Z,100.00
2023-09-22T00:39:06.665Z,100.00
2023-09-22T00:41:38.289Z,100.00
2023-09-22T00:44:08.520Z,100.00
2023-09-22T00:46:40.384Z,100.00
2023-09-22T00:49:11.336Z,100.00
2023-09-22T00:51:41.828Z,100.00
2023-09-22T00:54:12.284Z,100.00
2023-09-22T00:56:43.844Z,100.00
2023-09-22T00:59:14.677Z,100.00
2023-09-22T01:01:45.326Z,100.00
2023-09-22T01:04:15.747Z,100.00
2023-09-22T01:06:46.474Z,100.00
2023-09-22T01:09:16.793Z,100.00
2023-09-22T01:11:47.991Z,100.00
2023-09-22T01:14:18.072Z,100.00
2023-09-22T01:16:47.916Z,100.00
2023-09-22T01:19:18.883Z,100.00
2023-09-22T01:21:50.802Z,100.00
2023-09-22T01:24:21.002Z,100.00
2023-09-22T01:26:50.759Z,100.00
2023-09-22T01:29:21.037Z,100.00
2023-09-22T01:31:50.898Z,100.00
2023-09-22T01:34:21.866Z,100.00
2023-09-22T01:36:53.138Z,100.00
2023-09-22T01:39:25.121Z,100.00
2023-09-22T01:41:55.256Z,100.00
2023-09-22T01:44:26.325Z,100.00
2023-09-22T01:46:56.056Z,100.00
2023-09-22T01:49:27.197Z,100.00
2023-09-22T01:51:58.516Z,100.00
2023-09-22T01:54:28.734Z,100.00
2023-09-22T01:56:58.487Z,100.00
2023-09-22T01:59:28.566Z,100.00
2023-09-22T02:01:58.198Z,100.00
2023-09-22T02:04:29.838Z,100.00
2023-09-22T02:07:01.223Z,100.00
2023-09-22T02:09:31.440Z,100.00
2023-09-22T02:12:01.220Z,100.00
2023-09-22T02:14:31.578Z,100.00
2023-09-22T02:17:01.460Z,100.00
2023-09-22T02:19:31.717Z,100.00
2023-09-22T02:22:02.918Z,100.00
2023-09-22T02:24:33.094Z,100.00
2023-09-22T02:27:03.914Z,100.00
2023-09-22T02:29:34.124Z,100.00
2023-09-22T02:32:04.015Z,100.00
2023-09-22T02:34:34.682Z,100.00
2023-09-22T02:37:06.649Z,100.00
2023-09-22T02:39:37.368Z,100.00
2023-09-22T02:42:08.387Z,100.00
2023-09-22T02:44:38.549Z,100.00
2023-09-22T02:47:08.602Z,100.00
2023-09-22T02:49:38.972Z,100.00
2023-09-22T02:52:12.093Z,100.00
2023-09-22T02:54:43.018Z,100.00
2023-09-22T02:57:12.852Z,100.00
2023-09-22T02:59:42.953Z,100.00
2023-09-22T03:02:12.920Z,100.00
2023-09-22T03:04:43.280Z,100.00
2023-09-22T03:07:14.784Z,100.00
2023-09-22T03:09:45.075Z,100.00
2023-09-22T03:12:14.931Z,100.00
2023-09-22T03:14:45.166Z,100.00
2023-09-22T03:17:15.573Z,100.00
2023-09-22T03:19:45.663Z,100.00
2023-09-22T03:22:16.905Z,100.00
2023-09-22T03:24:47.103Z,100.00
2023-09-22T03:27:17.595Z,100.00
2023-09-22T03:29:49.686Z,100.00
2023-09-22T03:32:22.653Z,100.00
2023-09-22T03:34:53.108Z,100.00
2023-09-22T03:37:28.658Z,100.00
2023-09-22T03:39:59.414Z,100.00
2023-09-22T03:42:29.404Z,100.00
2023-09-22T03:45:00.507Z,100.00
2023-09-22T03:47:31.066Z,100.00
2023-09-22T03:50:01.817Z,100.00
2023-09-22T03:52:33.277Z,100.00
2023-09-22T03:55:03.982Z,100.00
2023-09-22T03:57:34.473Z,100.00
2023-09-22T04:00:11.528Z,100.00
2023-09-22T04:02:44.042Z,100.00
2023-09-22T04:05:15.288Z,100.00
2023-09-22T04:07:47.272Z,100.00
2023-09-22T04:10:18.570Z,100.00
2023-09-22T04:12:48.522Z,100.00
2023-09-22T04:15:19.145Z,100.00
2023-09-22T04:17:49.080Z,100.00
2023-09-22T04:20:30.379Z,100.00
2023-09-22T04:23:01.815Z,100.00
2023-09-22T04:25:35.679Z,100.00
2023-09-22T04:28:11.726Z,100.00
2023-09-22T04:30:42.615Z,100.00
2023-09-22T04:33:13.347Z,100.00
2023-09-22T04:35:44.439Z,100.00
2023-09-22T04:38:15.875Z,100.00
2023-09-22T04:40:46.305Z,100.00
2023-09-22T04:43:15.893Z,100.00
2023-09-22T04:45:47.632Z,100.00
2023-09-22T04:48:17.847Z,100.00
2023-09-22T04:50:55.467Z,100.00
2023-09-22T04:53:26.841Z,100.00
2023-09-22T04:56:07.625Z,100.00
2023-09-22T04:58:39.506Z,100.00
2023-09-22T05:01:10.102Z,100.00
2023-09-22T05:03:41.046Z,100.00
2023-09-22T05:06:11.989Z,100.00
2023-09-22T05:08:44.111Z,100.00
2023-09-22T05:11:14.674Z,100.00
2023-09-22T05:13:45.642Z,100.00
2023-09-22T05:16:16.509Z,100.00
2023-09-22T05:18:47.009Z,100.00
2023-09-22T05:21:18.377Z,100.00
2023-09-22T05:23:49.627Z,100.00
2023-09-22T05:26:22.267Z,100.00
2023-09-22T05:28:52.349Z,100.00
2023-09-22T05:31:23.047Z,100.00
2023-09-22T05:33:53.056Z,100.00
2023-09-22T05:36:23.369Z,100.00
2023-09-22T05:38:55.250Z,100.00
2023-09-22T05:41:25.330Z,100.00
2023-09-22T05:43:57.933Z,100.00
2023-09-22T05:46:33.066Z,100.00
2023-09-22T05:49:03.340Z,100.00
2023-09-22T05:51:34.022Z,100.00
2023-09-22T05:54:05.813Z,100.00
2023-09-22T05:56:36.472Z,100.00
2023-09-22T05:59:08.010Z,100.00
2023-09-22T06:01:38.945Z,100.00
2023-09-22T06:04:11.109Z,100.00
2023-09-22T06:06:43.943Z,100.00
2023-09-22T06:09:16.508Z,100.00
2023-09-22T06:11:48.026Z,100.00
2023-09-22T06:14:19.924Z,100.00
2023-09-22T06:16:50.675Z,100.00
2023-09-22T06:19:21.641Z,100.00
2023-09-22T06:21:51.855Z,100.00
2023-09-22T06:24:23.238Z,100.00
2023-09-22T06:26:53.751Z,100.00
2023-09-22T06:29:23.592Z,100.00
2023-09-22T06:31:54.118Z,100.00
2023-09-22T06:34:24.150Z,100.00
2023-09-22T06:36:54.542Z,100.00
2023-09-22T06:39:25.895Z,100.00
2023-09-22T06:41:56.411Z,100.00
2023-09-22T06:44:29.222Z,100.00
2023-09-22T06:46:59.483Z,100.00
2023-09-22T06:49:29.983Z,99.30
2023-09-22T06:52:01.413Z,94.12
2023-09-22T06:54:32.700Z,91.25
2023-09-22T06:57:04.371Z,88.57
2023-09-22T06:59:34.450Z,88.99
2023-09-22T07:02:05.000Z,84.66
2023-09-22T07:04:35.254Z,83.48
2023-09-22T07:07:05.964Z,80.78
2023-09-22T07:09:37.624Z,80.79
2023-09-22T07:12:08.358Z,78.93
2023-09-22T07:14:38.428Z,76.72
2023-09-22T07:17:08.998Z,75.43
2023-09-22T07:19:40.813Z,74.31
2023-09-22T07:22:11.316Z,72.87
2023-09-22T07:24:43.777Z,72.40
2023-09-22T07:27:14.037Z,71.72
2023-09-22T07:29:44.458Z,71.56
2023-09-22T07:32:15.888Z,69.81
2023-09-22T07:34:46.980Z,68.77
2023-09-22T07:37:21.029Z,68.72
2023-09-22T07:39:53.401Z,68.38
2023-09-22T07:42:24.011Z,68.40
2023-09-22T07:44:53.797Z,68.10
2023-09-22T07:47:27.110Z,67.77
2023-09-22T07:49:57.840Z,66.82
2023-09-22T07:52:28.113Z,66.45
2023-09-22T07:55:00.422Z,65.74
2023-09-22T07:57:32.054Z,64.83
2023-09-22T08:00:01.904Z,65.66
2023-09-22T08:02:41.625Z,65.08
2023-09-22T08:05:16.531Z,65.06
2023-09-22T08:07:47.231Z,64.63
2023-09-22T08:10:20.019Z,64.60
2023-09-22T08:12:50.510Z,65.45
2023-09-22T08:15:20.433Z,64.78
2023-09-22T08:17:51.378Z,65.06
2023-09-22T08:20:21.350Z,64.56
2023-09-22T08:22:51.640Z,63.42
2023-09-22T08:25:22.991Z,63.40
2023-09-22T08:27:54.250Z,63.65
2023-09-22T08:30:25.443Z,62.77
2023-09-22T08:32:56.549Z,62.10
2023-09-22T08:35:26.513Z,62.17
2023-09-22T08:37:57.446Z,62.59
2023-09-22T08:40:28.750Z,63.66
2023-09-22T08:42:59.121Z,63.55
2023-09-22T08:45:29.029Z,65.59
2023-09-22T08:48:00.233Z,65.96
2023-09-22T08:50:30.289Z,65.08
2023-09-22T08:53:00.511Z,63.82
2023-09-22T08:55:31.660Z,62.51
2023-09-22T08:58:02.384Z,63.25
2023-09-22T09:00:32.668Z,64.54
2023-09-22T09:03:11.708Z,62.73
2023-09-22T09:05:42.266Z,62.83
2023-09-22T09:08:13.777Z,62.16
2023-09-22T09:10:45.598Z,62.25
2023-09-22T09:13:16.360Z,63.46
2023-09-22T09:15:49.502Z,64.42
2023-09-22T09:18:21.188Z,65.52
2023-09-22T09:21:07.554Z,66.28
2023-09-22T09:23:37.960Z,66.67
2023-09-22T09:26:09.329Z,67.64
2023-09-22T09:28:42.701Z,67.49
2023-09-22T09:31:13.097Z,67.57
2023-09-22T09:33:50.537Z,65.81
2023-09-22T09:36:20.463Z,65.69
2023-09-22T09:38:50.693Z,65.24
2023-09-22T09:41:23.966Z,65.08
2023-09-22T09:43:55.831Z,63.57
2023-09-22T09:46:27.124Z,60.92
2023-09-22T09:48:58.668Z,61.64
2023-09-22T09:51:30.411Z,59.60
2023-09-22T09:54:06.538Z,61.12
2023-09-22T09:56:41.021Z,62.52
2023-09-22T09:59:13.612Z,62.57
2023-09-22T10:01:43.684Z,63.70
2023-09-22T10:04:14.302Z,62.63
2023-09-22T10:06:52.249Z,61.85
2023-09-22T10:09:23.419Z,61.62
2023-09-22T10:11:55.346Z,62.52
2023-09-22T10:14:40.412Z,62.00
2023-09-22T10:17:20.798Z,62.18
2023-09-22T10:19:51.101Z,62.68
2023-09-22T10:22:22.885Z,61.13
2023-09-22T10:25:09.228Z,60.65
2023-09-22T10:28:02.447Z,61.47
2023-09-22T10:30:49.030Z,60.88
2023-09-22T10:33:33.897Z,60.92
2023-09-22T10:36:06.169Z,61.84
2023-09-22T10:38:55.431Z,59.94
2023-09-22T10:41:25.723Z,60.49
2023-09-22T10:44:01.631Z,61.02
2023-09-22T10:46:32.660Z,61.74
2023-09-22T10:49:02.643Z,62.28
2023-09-22T10:51:53.827Z,64.03
2023-09-22T10:54:23.828Z,63.14
2023-09-22T10:56:54.023Z,63.25
2023-09-22T10:59:35.275Z,62.50
2023-09-22T11:02:05.642Z,62.08
2023-09-22T11:04:45.096Z,62.10
2023-09-22T11:07:15.441Z,60.84
2023-09-22T11:09:45.433Z,60.79
2023-09-22T11:12:15.700Z,61.42
2023-09-22T11:14:47.819Z,60.29
2023-09-22T11:17:18.217Z,60.91
2023-09-22T11:19:54.746Z,59.97
2023-09-22T11:22:25.142Z,59.90
2023-09-22T11:24:55.312Z,59.95
2023-09-22T11:27:25.852Z,57.90
2023-09-22T11:30:11.211Z,59.99
2023-09-22T11:32:43.442Z,60.90
2023-09-22T11:35:29.787Z,59.99
2023-09-22T11:38:00.520Z,60.50
2023-09-22T11:40:41.222Z,61.48
2023-09-22T11:43:15.391Z,61.17
2023-09-22T11:45:45.651Z,61.05
2023-09-22T11:48:19.912Z,62.24
2023-09-22T11:50:56.959Z,61.58
2023-09-22T11:53:30.369Z,61.97
2023-09-22T11:56:00.460Z,62.49
2023-09-22T11:58:31.014Z,62.29
2023-09-22T12:01:02.030Z,62.07
2023-09-22T12:03:34.279Z,62.45
2023-09-22T12:06:04.843Z,62.60
2023-09-22T12:08:35.395Z,62.75
2023-09-22T12:11:05.770Z,62.58
2023-09-22T12:13:36.228Z,62.56
2023-09-22T12:16:06.490Z,61.79
2023-09-22T12:18:38.373Z,62.02
2023-09-22T12:21:08.475Z,62.00
2023-09-22T12:23:39.807Z,62.63
2023-09-22T12:26:10.619Z,61.81
2023-09-22T12:28:41.990Z,61.72
2023-09-22T12:31:12.173Z,61.53
2023-09-22T12:33:44.425Z,62.13
2023-09-22T12:36:15.935Z,62.10
2023-09-22T12:38:47.165Z,62.03
2023-09-22T12:41:17.240Z,62.61
2023-09-22T12:43:47.916Z,62.10
2023-09-22T12:46:18.322Z,62.70
2023-09-22T12:48:50.245Z,62.09
2023-09-22T12:51:20.076Z,62.19
2023-09-22T12:53:50.898Z,61.68
2023-09-22T12:56:20.959Z,62.61
2023-09-22T12:58:51.335Z,63.79
2023-09-22T13:01:21.576Z,63.38
2023-09-22T13:03:53.870Z,61.99
2023-09-22T13:06:23.913Z,61.18
2023-09-22T13:08:54.832Z,62.03
2023-09-22T13:11:24.941Z,61.43
2023-09-22T13:13:55.609Z,61.09
2023-09-22T13:16:25.869Z,60.90
2023-09-22T13:18:57.824Z,61.27
2023-09-22T13:21:28.152Z,60.99
2023-09-22T13:23:59.342Z,61.24
2023-09-22T13:26:29.317Z,61.51
2023-09-22T13:29:01.443Z,62.45
2023-09-22T13:31:31.279Z,61.67
2023-09-22T13:34:03.905Z,62.86
2023-09-22T13:36:33.769Z,63.00
2023-09-22T13:39:05.021Z,62.98
2023-09-22T13:41:35.005Z,62.62
2023-09-22T13:44:07.381Z,62.59
2023-09-22T13:46:37.478Z,62.47
2023-09-22T13:49:09.148Z,63.31
2023-09-22T13:51:39.039Z,64.14
2023-09-22T13:54:09.250Z,63.86
2023-09-22T13:56:39.803Z,63.47
2023-09-22T13:59:10.090Z,63.21
2023-09-22T14:01:40.653Z,63.43
2023-09-22T14:04:12.888Z,64.12
2023-09-22T14:06:42.822Z,64.27
2023-09-22T14:09:13.098Z,64.49
2023-09-22T14:11:42.972Z,65.18
2023-09-22T14:14:13.095Z,65.28
2023-09-22T14:16:43.466Z,64.30
2023-09-22T14:19:15.458Z,64.16
2023-09-22T14:21:45.253Z,64.68
2023-09-22T14:24:15.770Z,65.00
2023-09-22T14:26:46.450Z,65.22
2023-09-22T14:29:16.802Z,65.31
2023-09-22T14:31:46.934Z,65.33
2023-09-22T14:34:18.770Z,66.03
2023-09-22T14:36:48.467Z,65.86
2023-09-22T14:39:18.769Z,66.58
2023-09-22T14:41:48.537Z,66.73
2023-09-22T14:44:18.992Z,65.91
2023-09-22T14:46:49.375Z,67.36
2023-09-22T14:49:22.177Z,68.25
2023-09-22T14:51:52.288Z,67.64
2023-09-22T14:54:23.217Z,69.15
2023-09-22T14:56:52.979Z,70.26
2023-09-22T14:59:23.087Z,68.24
2023-09-22T15:01:53.064Z,69.90
2023-09-22T15:04:25.068Z,70.33
2023-09-22T15:06:55.439Z,70.05
2023-09-22T15:09:26.388Z,70.95
2023-09-22T15:11:56.261Z,71.63
2023-09-22T15:14:28.900Z,74.92
2023-09-22T15:16:59.925Z,71.57
2023-09-22T15:19:31.634Z,70.52
2023-09-22T15:22:01.365Z,71.17
2023-09-22T15:24:31.603Z,72.16
2023-09-22T15:27:01.567Z,73.25
2023-09-22T15:29:31.917Z,77.01
2023-09-22T15:32:02.771Z,77.90
2023-09-22T15:34:34.721Z,80.37
2023-09-22T15:37:05.337Z,79.78
2023-09-22T15:39:36.142Z,78.05
2023-09-22T15:42:07.280Z,80.73
2023-09-22T15:44:38.563Z,81.34
2023-09-22T15:47:13.356Z,79.04
2023-09-22T15:49:45.977Z,75.06
2023-09-22T15:52:17.892Z,72.23
2023-09-22T15:54:52.638Z,71.48
2023-09-22T15:57:24.713Z,73.17
2023-09-22T15:59:58.708Z,78.55
2023-09-22T16:02:29.407Z,82.11
2023-09-22T16:05:01.316Z,85.51
2023-09-22T16:07:31.337Z,88.68
2023-09-22T16:10:02.021Z,91.87
2023-09-22T16:12:31.937Z,92.66
2023-09-22T16:15:02.264Z,95.22
2023-09-22T16:17:32.116Z,96.47
2023-09-22T16:20:05.596Z,97.50
2023-09-22T16:22:35.878Z,99.00
2023-09-22T16:25:06.406Z,100.00
2023-09-22T16:27:36.306Z,100.00
2023-09-22T16:30:07.700Z,100.00
2023-09-22T16:32:37.933Z,100.00
2023-09-22T16:35:10.675Z,100.00
2023-09-22T16:37:40.867Z,100.00
2023-09-22T16:40:12.444Z,100.00
2023-09-22T16:42:45.385Z,100.00
2023-09-22T16:45:17.292Z,100.00
2023-09-22T16:47:47.297Z,100.00
2023-09-22T16:50:20.660Z,100.00
2023-09-22T16:52:50.604Z,100.00
2023-09-22T16:55:21.102Z,100.00
2023-09-22T16:57:51.869Z,100.00
2023-09-22T17:00:24.721Z,100.00
2023-09-22T17:02:55.722Z,100.00
2023-09-22T17:05:27.601Z,100.00
2023-09-22T17:07:57.703Z,100.00
2023-09-22T17:10:27.815Z,100.00
2023-09-22T17:12:57.822Z,100.00
2023-09-22T17:15:28.211Z,100.00
2023-09-22T17:17:58.210Z,100.00
2023-09-22T17:20:30.076Z,100.00
2023-09-22T17:23:00.090Z,100.00
2023-09-22T17:25:30.523Z,100.00
2023-09-22T17:28:00.422Z,100.00
2023-09-22T17:30:30.613Z,100.00
2023-09-22T17:33:00.505Z,100.00
2023-09-22T17:35:32.547Z,100.00
2023-09-22T17:38:02.607Z,100.00
2023-09-22T17:40:32.855Z,100.00
2023-09-22T17:43:05.436Z,100.00
2023-09-22T17:45:36.001Z,100.00
2023-09-22T17:48:07.250Z,100.00
2023-09-22T17:50:39.513Z,100.00
2023-09-22T17:53:12.106Z,100.00
2023-09-22T17:55:42.357Z,100.00
2023-09-22T17:58:12.052Z,100.00
2023-09-22T18:00:42.600Z,100.00
2023-09-22T18:03:12.582Z,100.00
2023-09-22T18:05:44.430Z,100.00
2023-09-22T18:08:14.516Z,100.00
2023-09-22T18:10:44.648Z,100.00
2023-09-22T18:13:19.592Z,100.00
2023-09-22T18:15:51.112Z,100.00
2023-09-22T18:18:21.071Z,100.00
2023-09-22T18:20:56.075Z,100.00
2023-09-22T18:23:26.278Z,100.00
2023-09-22T18:26:01.475Z,100.00
2023-09-22T18:28:35.141Z,100.00
2023-09-22T18:31:08.737Z,100.00
2023-09-22T18:33:40.853Z,100.00
2023-09-22T18:36:14.771Z,100.00
2023-09-22T18:38:45.179Z,100.00
2023-09-22T18:41:20.996Z,100.00
2023-09-22T18:43:53.482Z,100.00
2023-09-22T18:46:26.411Z,100.00
2023-09-22T18:49:03.217Z,100.00
2023-09-22T18:51:39.145Z,100.00
2023-09-22T18:54:10.500Z,100.00
2023-09-22T18:56:44.334Z,100.00
2023-09-22T18:59:21.312Z,100.00
2023-09-22T19:01:56.041Z,100.00
2023-09-22T19:04:27.257Z,100.00
2023-09-22T19:07:01.664Z,100.00
2023-09-22T19:09:32.580Z,100.00
2023-09-22T19:12:04.737Z,100.00
2023-09-22T19:14:41.658Z,100.00
2023-09-22T19:17:24.541Z,100.00
2023-09-22T19:19:58.781Z,100.00
2023-09-22T19:22:34.431Z,100.00
2023-09-22T19:25:06.343Z,100.00
2023-09-22T19:27:36.798Z,100.00
2023-09-22T19:30:07.516Z,100.00
2023-09-22T19:32:38.220Z,100.00
2023-09-22T19:35:08.869Z,100.00
2023-09-22T19:37:40.610Z,100.00
2023-09-22T19:40:13.426Z,100.00
2023-09-22T19:42:43.622Z,100.00
2023-09-22T19:45:13.414Z,100.00
2023-09-22T19:47:45.765Z,100.00
2023-09-22T19:50:16.136Z,100.00
2023-09-22T19:52:48.000Z,100.00
2023-09-22T19:55:17.821Z,100.00
2023-09-22T19:57:48.094Z,100.00
2023-09-22T20:00:20.341Z,100.00
2023-09-22T20:02:51.734Z,100.00
2023-09-22T20:05:21.900Z,100.00
2023-09-22T20:07:55.212Z,100.00
2023-09-22T20:10:25.177Z,100.00
2023-09-22T20:12:57.451Z,100.00
2023-09-22T20:15:27.630Z,100.00
2023-09-22T20:17:57.758Z,100.00
2023-09-22T20:20:28.936Z,100.00
2023-09-22T20:23:00.652Z,100.00
2023-09-22T20:25:32.566Z,100.00
2023-09-22T20:28:05.914Z,100.00
2023-09-22T20:30:38.629Z,100.00
2023-09-22T20:33:11.280Z,100.00
2023-09-22T20:35:43.837Z,100.00
2023-09-22T20:38:18.080Z,100.00
2023-09-22T20:43:21.600Z,100.00
2023-09-22T20:45:54.868Z,100.00
2023-09-22T20:48:26.768Z,100.00
2023-09-22T20:50:56.657Z,100.00
2023-09-22T20:53:29.058Z,100.00
2023-09-22T20:55:58.957Z,100.00
2023-09-22T20:58:29.161Z,100.00
2023-09-22T21:01:02.180Z,100.00
2023-09-22T21:03:32.534Z,100.00
2023-09-22T21:06:04.849Z,100.00
2023-09-22T21:08:37.808Z,100.00
2023-09-22T21:11:08.643Z,100.00
2023-09-22T21:13:39.263Z,100.00
2023-09-22T21:16:11.992Z,100.00
2023-09-22T21:18:42.309Z,100.00
2023-09-22T21:21:12.078Z,100.00
2023-09-22T21:23:43.717Z,100.00
2023-09-22T21:26:17.059Z,100.00
2023-09-22T21:28:47.420Z,100.00
2023-09-22T21:31:17.462Z,100.00
2023-09-22T21:33:48.770Z,100.00
2023-09-22T21:36:19.444Z,100.00
2023-09-22T21:38:55.982Z,100.00
2023-09-22T21:41:26.059Z,100.00
2023-09-22T21:43:56.369Z,100.00
2023-09-22T21:46:27.220Z,100.00
2023-09-22T21:48:57.757Z,100.00
2023-09-22T21:51:27.689Z,100.00
2023-09-22T21:53:59.527Z,100.00
2023-09-22T21:56:29.266Z,100.00
2023-09-22T21:59:00.871Z,100.00
2023-09-22T22:01:33.157Z,100.00
2023-09-22T22:04:04.898Z,100.00
2023-09-22T22:06:43.899Z,100.00
2023-09-22T22:09:19.378Z,100.00
2023-09-22T22:11:50.876Z,100.00
2023-09-22T22:14:21.011Z,100.00
2023-09-22T22:16:52.543Z,100.00
2023-09-22T22:19:22.979Z,100.00
2023-09-22T22:21:56.307Z,100.00
2023-09-22T22:24:30.386Z,100.00
2023-09-22T22:27:01.928Z,100.00
2023-09-22T22:29:32.307Z,100.00
2023-09-22T22:32:02.387Z,100.00
2023-09-22T22:34:32.644Z,100.00
2023-09-22T22:37:04.896Z,100.00
2023-09-22T22:39:36.404Z,100.00
2023-09-22T22:42:07.031Z,100.00
2023-09-22T22:44:38.584Z,100.00
2023-09-22T22:47:09.245Z,100.00
2023-09-22T22:49:39.676Z,100.00
2023-09-22T22:52:10.632Z,100.00
2023-09-22T22:54:42.304Z,100.00
2023-09-22T22:57:13.264Z,100.00
2023-09-22T22:59:43.475Z,100.00
2023-09-22T23:02:13.324Z,100.00
2023-09-22T23:04:44.703Z,100.00
2023-09-22T23:07:14.528Z,100.00
2023-09-22T23:09:46.376Z,100.00
2023-09-22T23:12:16.645Z,100.00
2023-09-22T23:14:48.405Z,100.00
2023-09-22T23:17:23.172Z,100.00
2023-09-22T23:19:53.416Z,100.00
2023-09-22T23:22:25.386Z,100.00
2023-09-22T23:24:57.821Z,100.00
2023-09-22T23:27:27.526Z,100.00
2023-09-22T23:29:57.877Z,100.00
2023-09-22T23:32:27.830Z,100.00
2023-09-22T23:35:00.658Z,100.00
2023-09-22T23:37:32.173Z,100.00
2023-09-22T23:40:04.447Z,100.00
2023-09-22T23:42:38.460Z,100.00
2023-09-22T23:45:10.328Z,100.00
2023-09-22T23:47:41.826Z,100.00
2023-09-22T23:50:13.535Z,100.00
2023-09-22T23:52:43.359Z,100.00
2023-09-22T23:55:15.091Z,100.00
2023-09-22T23:57:44.734Z,100.00
